createdAt,value
2018-08-16T07:03:31.350Z,98847.91
2018-08-16T07:05:59.448Z,98840.63
2018-08-16T07:08:27.573Z,98838.33
2018-08-16T07:10:55.804Z,98834.69
2018-08-16T07:13:23.908Z,98835.45
2018-08-16T07:15:52.027Z,98835.56
2018-08-16T07:18:20.685Z,98836.31
2018-08-16T07:20:49.372Z,98841.41
2018-08-16T07:23:17.450Z,98835.23
2018-08-16T07:25:45.554Z,98835.34
2018-08-16T07:28:13.713Z,98833.78
2018-08-16T07:30:41.993Z,98828.59
2018-08-16T07:33:10.381Z,98824.58
2018-08-16T07:35:38.563Z,98830.53
2018-08-16T07:38:07.001Z,98827.55
2018-08-16T07:40:35.174Z,98828.48
2018-08-16T07:43:04.008Z,98814.92
2018-08-16T07:45:32.139Z,98816.19
2018-08-16T07:48:01.207Z,98812.73
2018-08-16T07:50:29.888Z,98816.27
2018-08-16T07:52:58.507Z,98818.22
2018-08-16T07:55:26.621Z,98814.88
2018-08-16T07:57:54.736Z,98814.46
2018-08-16T08:00:23.046Z,98802.51
2018-08-16T08:02:51.131Z,98812.02
2018-08-16T08:05:19.288Z,98803.06
2018-08-16T08:07:47.411Z,98801.04
2018-08-16T08:10:15.792Z,98801.72
2018-08-16T08:12:43.990Z,98804.66
2018-08-16T08:15:14.359Z,98805.59
2018-08-16T08:17:42.642Z,98799.66
2018-08-16T08:20:14.011Z,98794.48
2018-08-16T08:22:42.391Z,98797.38
2018-08-16T08:25:10.868Z,98796.23
2018-08-16T08:27:39.012Z,98795.83
2018-08-16T08:30:09.514Z,98793.16
2018-08-16T08:32:37.672Z,98785.69
2018-08-16T08:35:06.111Z,98781.11
2018-08-16T08:37:46.153Z,98787.22
2018-08-16T08:40:14.372Z,98781.87
2018-08-16T08:42:42.485Z,98779.98
2018-08-16T08:45:11.735Z,98778.84
2018-08-16T08:47:45.313Z,98778.61
2018-08-16T08:50:13.477Z,98774.09
2018-08-16T08:52:41.768Z,98774.66
2018-08-16T08:55:21.163Z,98771.53
2018-08-16T08:58:04.300Z,98769.98
2018-08-16T09:00:32.622Z,98769.62
2018-08-16T09:03:01.452Z,98767.53
2018-08-16T09:05:29.838Z,98760.97
2018-08-16T09:07:58.157Z,98763.80
2018-08-16T09:11:11.577Z,98760.59
2018-08-16T09:13:51.949Z,98754.62
2018-08-16T09:16:23.649Z,98746.84
2018-08-16T09:18:52.278Z,98746.45
2018-08-16T09:21:20.447Z,98739.99
2018-08-16T09:23:49.465Z,98743.29
2018-08-16T09:26:22.918Z,98735.81
2018-08-16T09:28:51.125Z,98739.33
2018-08-16T09:31:30.667Z,98734.02
2018-08-16T09:34:25.862Z,98737.98
2018-08-16T09:36:54.135Z,98726.23
2018-08-16T09:39:22.815Z,98728.78
2018-08-16T09:41:51.003Z,98734.22
2018-08-16T09:44:19.164Z,98710.47
2018-08-16T09:47:09.213Z,98715.99
2018-08-16T09:54:31.807Z,98709.23
2018-08-16T09:57:01.427Z,98713.98
2018-08-16T09:59:29.905Z,98712.78
2018-08-16T10:01:58.058Z,98709.77
2018-08-16T10:04:26.268Z,98707.82
2018-08-16T10:06:54.499Z,98710.70
2018-08-16T10:09:25.031Z,98706.75
2018-08-16T10:11:53.612Z,98697.14
2018-08-16T10:14:21.941Z,98695.89
2018-08-16T10:16:50.366Z,98695.03
2018-08-16T10:19:18.954Z,98697.72
2018-08-16T10:21:47.097Z,98700.94
2018-08-16T10:24:15.283Z,98693.59
2018-08-16T10:26:43.427Z,98687.00
2018-08-16T10:29:12.803Z,98685.23
2018-08-16T10:31:41.217Z,98680.38
2018-08-16T10:34:10.275Z,98680.97
2018-08-16T10:36:38.427Z,98669.55
2018-08-16T10:39:09.268Z,98674.03
2018-08-16T10:41:37.476Z,98664.63
2018-08-16T10:44:06.244Z,98663.32
2018-08-16T10:46:34.525Z,98665.36
2018-08-16T10:49:02.665Z,98663.55
2018-08-16T10:51:30.964Z,98661.70
2018-08-16T10:54:00.077Z,98662.94
2018-08-16T10:56:28.940Z,98660.13
2018-08-16T10:58:57.089Z,98651.20
2018-08-16T11:01:25.237Z,98650.35
2018-08-16T11:03:53.540Z,98649.56
2018-08-16T11:06:21.980Z,98640.55
2018-08-16T11:08:50.598Z,98643.75
2018-08-16T11:11:18.720Z,98642.38
2018-08-16T11:13:47.243Z,98634.96
2018-08-16T11:16:15.395Z,98638.19
2018-08-16T11:18:43.527Z,98630.26
2018-08-16T11:21:12.029Z,98628.41
2018-08-16T11:23:40.139Z,98633.22
2018-08-16T11:26:08.277Z,98626.78
2018-08-16T11:28:36.488Z,98617.72
2018-08-16T11:31:04.686Z,98626.45
2018-08-16T18:33:50.910Z,98353.41
2018-08-16T18:36:26.891Z,98359.02
2018-08-16T18:38:55.341Z,98358.97
2018-08-16T18:41:23.495Z,98353.69
2018-08-16T18:43:51.599Z,98358.17
2018-08-16T18:46:19.720Z,98357.92
2018-08-16T18:48:48.013Z,98354.69
2018-08-16T18:51:16.216Z,98354.08
2018-08-16T18:53:44.372Z,98362.59
2018-08-16T18:56:12.588Z,98366.72
2018-08-16T18:58:40.725Z,98366.21
2018-08-16T19:01:08.836Z,98371.13
2018-08-16T19:03:37.552Z,98370.66
2018-08-16T19:06:05.687Z,98371.97
2018-08-16T19:08:34.083Z,98369.16
2018-08-16T19:11:02.298Z,98367.34
2018-08-16T19:13:30.429Z,98370.80
2018-08-16T19:15:59.502Z,98375.92
2018-08-16T19:18:28.054Z,98376.38
2018-08-16T19:20:56.170Z,98382.59
2018-08-16T19:23:24.299Z,98386.19
2018-08-16T19:25:52.428Z,98382.11
2018-08-16T19:28:20.559Z,98385.30
2018-08-16T19:30:48.692Z,98385.05
2018-08-16T19:33:16.819Z,98382.88
2018-08-16T19:35:44.968Z,98398.41
2018-08-16T19:38:13.840Z,98398.00
2018-08-16T19:40:41.971Z,98396.36
2018-08-16T19:43:10.387Z,98399.17
2018-08-16T19:45:38.514Z,98400.27
2018-08-16T19:48:07.214Z,98395.96
2018-08-16T19:50:35.220Z,98393.63
2018-08-16T19:53:03.478Z,98394.11
2018-08-16T19:55:31.707Z,98398.72
2018-08-16T19:58:00.955Z,98397.95
2018-08-16T20:00:29.360Z,98393.45
2018-08-16T20:02:57.536Z,98397.44
2018-08-16T20:05:25.615Z,98388.50
2018-08-16T20:07:54.746Z,98395.30
2018-08-16T20:10:23.764Z,98396.19
2018-08-16T20:12:52.136Z,98398.42
2018-08-16T20:15:20.270Z,98390.20
2018-08-16T20:17:48.427Z,98388.01
2018-08-16T20:20:16.559Z,98385.55
2018-08-16T20:22:44.694Z,98387.02
2018-08-16T20:25:12.810Z,98389.52
2018-08-16T20:27:41.288Z,98388.18
2018-08-16T20:30:09.472Z,98387.05
2018-08-16T20:32:37.632Z,98385.50
2018-08-16T20:35:05.769Z,98381.95
2018-08-16T20:37:40.247Z,98385.66
2018-08-16T20:40:08.387Z,98386.70
2018-08-16T20:42:36.786Z,98394.67
2018-08-16T20:45:06.359Z,98384.03
2018-08-16T20:47:36.328Z,98388.34
2018-08-16T20:50:05.140Z,98380.73
2018-08-16T20:52:33.284Z,98391.27
2018-08-16T20:55:01.526Z,98393.58
2018-08-16T20:57:29.891Z,98393.05
2018-08-16T20:59:58.109Z,98396.46
2018-08-16T21:02:27.415Z,98397.09
2018-08-16T21:04:56.112Z,98398.42
2018-08-16T21:07:24.288Z,98392.84
2018-08-16T21:09:52.648Z,98396.98
2018-08-16T21:12:20.800Z,98393.23
2018-08-16T21:14:49.107Z,98397.16
2018-08-16T21:17:17.242Z,98395.28
2018-08-16T21:19:45.399Z,98399.60
2018-08-16T21:22:13.848Z,98398.15
2018-08-16T21:24:41.971Z,98398.98
2018-08-16T21:27:10.103Z,98401.54
2018-08-16T21:29:38.325Z,98402.46
2018-08-16T21:32:06.464Z,98401.52
2018-08-16T21:34:34.682Z,98389.67
2018-08-16T21:37:03.022Z,98398.08
2018-08-16T21:39:31.447Z,98402.69
2018-08-16T21:41:59.582Z,98392.15
2018-08-16T21:44:27.834Z,98404.05
2018-08-16T21:46:56.283Z,98409.44
2018-08-16T21:49:24.742Z,98413.78
2018-08-16T21:51:53.097Z,98408.48
2018-08-16T21:54:21.326Z,98413.17
2018-08-16T21:56:49.454Z,98408.78
2018-08-16T22:13:11.076Z,98421.30
2018-08-16T22:15:39.626Z,98424.91
2018-08-16T22:18:07.915Z,98429.44
2018-08-16T22:20:36.049Z,98425.79
2018-08-16T22:23:04.195Z,98429.63
2018-08-16T22:25:32.385Z,98438.05
2018-08-16T22:28:00.542Z,98439.52
2018-08-16T22:30:29.822Z,98438.36
2018-08-16T22:32:57.927Z,98439.69
2018-08-16T22:35:26.317Z,98436.89
2018-08-16T22:37:55.284Z,98438.53
2018-08-16T22:40:24.503Z,98437.28
2018-08-16T22:42:52.848Z,98441.12
2018-08-16T22:45:21.112Z,98435.53
2018-08-16T22:47:50.150Z,98432.49
2018-08-16T22:50:18.295Z,98438.13
2018-08-16T22:52:47.479Z,98439.63
2018-08-16T22:55:15.596Z,98441.63
2018-08-16T22:57:43.819Z,98437.88
2018-08-16T23:00:12.663Z,98443.47
2018-08-16T23:02:41.552Z,98442.03
2018-08-16T23:05:09.691Z,98440.16
2018-08-16T23:07:38.116Z,98438.53
2018-08-16T23:10:06.535Z,98436.08
2018-08-16T23:12:34.666Z,98433.95
2018-08-16T23:15:02.890Z,98440.88
2018-08-16T23:17:30.979Z,98439.53
2018-08-16T23:19:59.092Z,98441.20
2018-08-16T23:22:27.203Z,98431.83
2018-08-16T23:24:55.411Z,98433.53
2018-08-16T23:27:23.537Z,98438.77
2018-08-16T23:29:51.907Z,98427.98
2018-08-16T23:32:20.272Z,98426.61
2018-08-16T23:34:48.387Z,98428.75
2018-08-16T23:37:16.468Z,98429.05
2018-08-16T23:39:44.587Z,98423.59
2018-08-16T23:42:12.681Z,98424.42
2018-08-16T23:44:40.975Z,98425.13
2018-08-16T23:47:09.353Z,98420.03
2018-08-16T23:49:37.455Z,98419.03
2018-08-16T23:52:05.593Z,98414.31
2018-08-16T23:54:33.705Z,98412.69
2018-08-16T23:57:01.805Z,98414.31
2018-08-16T23:59:29.899Z,98410.91
